Time,TemperatureF,DewpointF,PressureIn,WindDirection,WindDirectionDegrees,WindSpeedMPH,WindSpeedGustMPH,Humidity,HourlyPrecipIn,Conditions,Clouds,dailyrainin,SoftwareType,DateUTC
2013-05-27 00:00:00,56.0,-99.9,-100.00,South,173,3.0,-999.0,-999,-99.99,,,-99.99,,2013-05-27 07:00:00,
2013-05-27 00:53:00,56.0,-99.9,-100.00,South,173,3.0,-999.0,-999,-99.99,,,-99.99,,2013-05-27 07:53:00,
2013-05-27 01:00:00,56.0,-99.9,-100.00,South,172,3.0,-999.0,-999,-99.99,,,-99.99,,2013-05-27 08:00:00,
2013-05-27 01:52:00,56.0,-99.9,-100.00,South,172,3.0,-999.0,-999,-99.99,,,-99.99,,2013-05-27 08:52:00,
2013-05-27 02:00:00,55.0,-99.9,-100.00,SSE,150,3.0,-999.0,-999,-99.99,,,-99.99,,2013-05-27 09:00:00,
2013-05-27 02:53:00,55.0,-99.9,-100.00,SSE,150,3.0,-999.0,-999,-99.99,,,-99.99,,2013-05-27 09:53:00,
2013-05-27 03:00:00,55.0,-99.9,-100.00,SE,138,2.0,-999.0,-999,-99.99,,,-99.99,,2013-05-27 10:00:00,
2013-05-27 03:53:00,55.0,-99.9,-100.00,SE,138,2.0,-999.0,-999,-99.99,,,-99.99,,2013-05-27 10:53:00,
2013-05-27 04:00:00,54.0,-99.9,-100.00,SE,138,2.0,-999.0,-999,-99.99,,,-99.99,,2013-05-27 11:00:00,
2013-05-27 04:52:00,54.0,-99.9,-100.00,SE,138,2.0,-999.0,-999,-99.99,,,-99.99,,2013-05-27 11:52:00,
2013-05-27 05:00:00,53.0,-99.9,-100.00,South,170,1.0,-999.0,-999,-99.99,,,-99.99,,2013-05-27 12:00:00,
2013-05-27 05:52:00,53.0,-99.9,-100.00,South,170,1.0,-999.0,-999,-99.99,,,-99.99,,2013-05-27 12:52:00,
2013-05-27 06:00:00,53.0,-99.9,-100.00,SSW,196,1.0,-999.0,-999,-99.99,,,-99.99,,2013-05-27 13:00:00,
2013-05-27 06:53:00,53.0,-99.9,-100.00,SSW,196,1.0,-999.0,-999,-99.99,,,-99.99,,2013-05-27 13:53:00,
2013-05-27 07:00:00,54.0,-99.9,-100.00,South,173,1.0,-999.0,-999,-99.99,,,-99.99,,2013-05-27 14:00:00,
2013-05-27 07:52:00,54.0,-99.9,-100.00,South,173,1.0,-999.0,-999,-99.99,,,-99.99,,2013-05-27 14:52:00,
2013-05-27 08:00:00,56.0,-99.9,-100.00,SE,146,2.0,-999.0,-999,-99.99,,,-99.99,,2013-05-27 15:00:00,
2013-05-27 08:53:00,56.0,-99.9,-100.00,SE,146,2.0,-999.0,-999,-99.99,,,-99.99,,2013-05-27 15:53:00,
2013-05-27 09:00:00,56.0,-99.9,-100.00,South,172,2.0,-999.0,-999,-99.99,,,-99.99,,2013-05-27 16:00:00,
2013-05-27 09:53:00,56.0,-99.9,-100.00,South,172,2.0,-999.0,-999,-99.99,,,-99.99,,2013-05-27 16:53:00,
2013-05-27 11:00:00,59.0,-99.9,-100.00,ESE,110,2.0,-999.0,-999,-99.99,,,-99.99,,2013-05-27 18:00:00,
2013-05-27 11:52:00,59.0,-99.9,-100.00,ESE,110,2.0,-999.0,-999,-99.99,,,-99.99,,2013-05-27 18:52:00,
2013-05-27 12:00:00,60.0,-99.9,-100.00,SE,126,5.0,-999.0,-999,-99.99,,,-99.99,,2013-05-27 19:00:00,
2013-05-27 12:52:00,60.0,-99.9,-100.00,SE,126,5.0,-999.0,-999,-99.99,,,-99.99,,2013-05-27 19:52:00,
2013-05-27 14:00:00,60.0,-99.9,-100.00,SE,133,3.0,-999.0,-999,-99.99,,,-99.99,,2013-05-27 21:00:00,
2013-05-27 14:53:00,60.0,-99.9,-100.00,SE,133,3.0,-999.0,-999,-99.99,,,-99.99,,2013-05-27 21:53:00,
2013-05-27 15:00:00,61.0,-99.9,-100.00,SE,141,3.0,-999.0,-999,-99.99,,,-99.99,,2013-05-27 22:00:00,
2013-05-27 15:53:00,61.0,-99.9,-100.00,SE,141,3.0,-999.0,-999,-99.99,,,-99.99,,2013-05-27 22:53:00,
2013-05-27 16:00:00,62.0,-99.9,-100.00,SSE,153,5.0,-999.0,-999,-99.99,,,-99.99,,2013-05-27 23:00:00,
2013-05-27 16:52:00,62.0,-99.9,-100.00,SSE,153,5.0,-999.0,-999,-99.99,,,-99.99,,2013-05-27 23:52:00,
2013-05-27 19:00:00,61.0,-99.9,-100.00,South,171,5.0,-999.0,-999,-99.99,,,-99.99,,2013-05-28 02:00:00,
2013-05-27 19:52:00,61.0,-99.9,-100.00,South,171,5.0,-999.0,-999,-99.99,,,-99.99,,2013-05-28 02:52:00,
2013-05-27 20:00:00,60.0,-99.9,-100.00,South,173,5.0,-999.0,-999,-99.99,,,-99.99,,2013-05-28 03:00:00,
2013-05-27 20:53:00,60.0,-99.9,-100.00,South,173,5.0,-999.0,-999,-99.99,,,-99.99,,2013-05-28 03:53:00,
2013-05-27 23:00:00,58.0,-99.9,-100.00,South,174,3.0,-999.0,-999,-99.99,,,-99.99,,2013-05-28 06:00:00,
2013-05-27 23:52:00,58.0,-99.9,-100.00,South,174,3.0,-999.0,-999,-99.99,,,-99.99,,2013-05-28 06:52:00,